Time;durP1;ratioP1;P1;durP2;ratioP2;P2;SDS_P1;SDS_P2;PMS_P1;PMS_P2;Temp;Humidity;BMP_temperature;BMP_pressure;BME280_temperature;BME280_humidity;BME280_pressure;Samples;Min_cycle;Max_cycle;Signal;HPM_P1;HPM_P2
2022/08/29 00:00:12;;;;;;;1.63;1.10;;;;;;;29.52;41.81;99105.47;5111131;28;20122;-57
2022/08/29 00:02:38;;;;;;;1.25;0.90;;;;;;;29.52;41.65;99105.47;5110806;28;20044;-60
2022/08/29 00:05:05;;;;;;;1.73;0.88;;;;;;;29.51;41.67;99103.88;5111080;28;20044;-60
2022/08/29 00:07:30;;;;;;;1.45;1.08;;;;;;;29.48;41.46;99102.69;5111111;28;20240;-57
2022/08/29 00:09:56;;;;;;;1.40;1.02;;;;;;;29.51;41.85;99110.31;5111124;28;20158;-57
2022/08/29 00:12:21;;;;;;;1.52;1.00;;;;;;;29.51;41.60;99113.13;5111126;28;20543;-60
2022/08/29 00:14:47;;;;;;;1.30;0.88;;;;;;;29.51;41.51;99103.88;5111055;28;20107;-57
2022/08/29 00:17:12;;;;;;;1.38;1.00;;;;;;;29.51;41.88;99110.31;5110838;28;20050;-60
2022/08/29 00:19:37;;;;;;;1.33;0.90;;;;;;;29.51;41.74;99109.53;5109363;28;20149;-60
2022/08/29 00:22:03;;;;;;;1.55;1.00;;;;;;;29.51;41.45;99115.16;5110747;28;20058;-57
2022/08/29 00:24:28;;;;;;;1.63;1.00;;;;;;;29.52;41.72;99111.91;5111047;28;20396;-57
2022/08/29 00:26:54;;;;;;;1.50;1.10;;;;;;;29.52;41.76;99122.38;5110792;28;20063;-60
2022/08/29 00:29:19;;;;;;;1.55;1.00;;;;;;;29.51;41.84;99120.78;5110759;28;20126;-57
2022/08/29 00:31:45;;;;;;;1.60;1.10;;;;;;;29.51;41.54;99124.41;5110544;28;20412;-57
2022/08/29 00:34:10;;;;;;;1.23;0.90;;;;;;;29.49;41.94;99115.53;5110597;28;20046;-57
2022/08/29 00:36:36;;;;;;;1.50;1.10;;;;;;;29.50;41.88;99122.78;5110295;28;20073;-60
2022/08/29 00:39:03;;;;;;;1.50;1.10;;;;;;;29.51;41.37;99127.22;5110587;28;20407;-57
2022/08/29 00:41:29;;;;;;;1.48;0.80;;;;;;;29.50;41.43;99119.97;5110691;28;20047;-60
2022/08/29 00:43:55;;;;;;;1.60;1.20;;;;;;;29.49;41.53;99121.19;5110660;28;20050;-57
2022/08/29 00:46:42;;;;;;;1.17;0.95;;;;;;;29.50;41.92;99131.25;5110463;28;20035;-60
2022/08/29 00:49:17;;;;;;;1.35;1.00;;;;;;;29.51;41.70;99137.69;5110427;28;20053;-57
2022/08/29 00:51:44;;;;;;;1.30;0.90;;;;;;;29.50;41.70;99133.25;5110397;28;20060;-60
2022/08/29 00:54:12;;;;;;;1.42;1.00;;;;;;;29.50;41.88;99145.34;5092171;28;20361;-60
2022/08/29 00:56:39;;;;;;;1.40;0.90;;;;;;;29.50;41.53;99142.53;5110378;28;20126;-57
2022/08/29 00:59:11;;;;;;;1.35;1.00;;;;;;;29.50;41.75;99136.88;5091591;28;20047;-57
2022/08/29 01:01:37;;;;;;;;;;;;;;;29.56;41.49;99139.97;5110962;28;20062;-57
2022/08/29 01:04:03;;;;;;;1.33;1.00;;;;;;;29.50;41.82;99136.88;5110335;28;19915;-57
2022/08/29 01:06:29;;;;;;;1.40;0.90;;;;;;;29.51;41.76;99132.84;5110391;28;20050;-60
2022/08/29 01:08:55;;;;;;;1.67;1.08;;;;;;;29.48;41.85;99136.50;5110239;28;20054;-60
2022/08/29 01:14:06;;;;;;;1.27;1.00;;;;;;;29.48;41.65;99139.31;5106751;28;20133;-60
2022/08/29 01:16:32;;;;;;;1.55;1.10;;;;;;;29.47;41.86;99134.13;5109805;28;20069;-57
2022/08/29 01:19:02;;;;;;;1.52;1.15;;;;;;;29.48;41.55;99144.97;5089449;28;20040;-57
2022/08/29 01:21:37;;;;;;;2.03;1.20;;;;;;;29.48;41.95;99133.69;5109888;28;20040;-57
2022/08/29 01:24:14;;;;;;;1.42;1.13;;;;;;;29.49;41.58;99142.94;5110052;28;20055;-57
2022/08/29 01:26:43;;;;;;;1.85;1.10;;;;;;;29.49;41.66;99148.56;5109944;28;20591;-60
2022/08/29 01:29:09;;;;;;;1.27;0.98;;;;;;;29.49;41.82;99145.75;5109830;28;20488;-60
2022/08/29 01:31:44;;;;;;;1.30;0.95;;;;;;;29.48;41.54;99142.16;5109852;28;20550;-60
2022/08/29 01:34:11;;;;;;;1.55;1.00;;;;;;;29.48;41.70;99139.31;5109928;28;20043;-57
2022/08/29 01:36:58;;;;;;;1.40;1.00;;;;;;;29.47;41.63;99134.13;5109600;28;20055;-60
2022/08/29 01:39:28;;;;;;;1.15;0.90;;;;;;;29.49;41.85;99140.13;5109763;28;20461;-57
2022/08/29 01:41:55;;;;;;;1.42;1.00;;;;;;;29.49;41.72;99135.28;5109788;28;20044;-60
2022/08/29 01:44:24;;;;;;;1.52;1.00;;;;;;;29.48;41.53;99133.69;5107891;28;20061;-60
2022/08/29 01:46:52;;;;;;;1.73;1.10;;;;;;;29.49;41.54;99148.56;5091308;28;20047;-60
2022/08/29 01:49:18;;;;;;;2.20;1.10;;;;;;;29.48;41.76;99136.50;5109564;28;20084;-57
2022/08/29 01:51:44;;;;;;;1.25;0.90;;;;;;;29.48;41.54;99144.97;5109490;28;20043;-57
2022/08/29 01:54:10;;;;;;;1.40;1.00;;;;;;;29.49;41.84;99142.94;5109644;28;20059;-60
2022/08/29 01:56:42;;;;;;;1.67;1.13;;;;;;;29.49;41.82;99145.75;5109451;28;20047;-60
2022/08/29 01:59:11;;;;;;;1.37;1.00;;;;;;;29.49;41.56;99155.00;5109588;28;20135;-57
2022/08/29 02:01:39;;;;;;;1.20;1.00;;;;;;;29.48;41.56;99153.41;5109396;28;20765;-56
2022/08/29 02:04:06;;;;;;;0.90;0.80;;;;;;;29.48;41.84;99156.25;5109504;28;20096;-57
2022/08/29 02:06:33;;;;;;;1.38;0.98;;;;;;;29.48;41.67;99153.41;5109312;28;20100;-57
2022/08/29 02:09:00;;;;;;;1.38;1.00;;;;;;;29.48;41.56;99159.06;5109365;28;20064;-60
2022/08/29 02:11:26;;;;;;;1.33;0.93;;;;;;;29.49;41.62;99149.38;5109348;28;20040;-57
2022/08/29 02:13:54;;;;;;;1.17;0.90;;;;;;;29.48;41.62;99153.41;5109316;28;20068;-56
2022/08/29 02:16:20;;;;;;;1.65;1.00;;;;;;;29.47;41.83;99151.84;5109340;28;20082;-56
2022/08/29 02:18:46;;;;;;;1.45;1.00;;;;;;;29.49;41.82;99151.38;5109120;28;20085;-60
2022/08/29 02:21:14;;;;;;;1.40;1.02;;;;;;;29.48;41.94;99156.25;5109088;28;20122;-57
2022/08/29 02:23:40;;;;;;;1.42;1.08;;;;;;;29.47;41.55;99151.84;5109248;28;20089;-57
2022/08/29 02:26:05;;;;;;;1.20;0.90;;;;;;;29.48;41.54;99155.44;5112719;28;20052;-57
2022/08/29 02:28:32;;;;;;;1.63;1.00;;;;;;;29.47;41.56;99151.03;5112686;28;20047;-60
2022/08/29 02:30:58;;;;;;;1.55;1.08;;;;;;;29.47;41.78;99154.66;5112645;28;20097;-57
2022/08/29 02:33:24;;;;;;;2.05;1.10;;;;;;;29.48;41.46;99161.09;5112785;28;20044;-57
2022/08/29 02:35:50;;;;;;;1.40;0.90;;;;;;;29.47;41.83;99165.94;5112559;28;20415;-57
2022/08/29 02:38:16;;;;;;;1.25;0.90;;;;;;;29.46;41.72;99163.56;5112491;28;20040;-57
2022/08/29 02:40:43;;;;;;;1.83;1.15;;;;;;;29.46;42.00;99167.16;5112597;28;20045;-57
2022/08/29 02:43:08;;;;;;;1.50;1.00;;;;;;;29.47;41.61;99160.28;5112549;28;20040;-57
2022/08/29 02:45:39;;;;;;;1.83;1.08;;;;;;;29.45;41.97;99151.50;5112492;28;20405;-57
2022/08/29 02:48:05;;;;;;;1.35;1.00;;;;;;;29.47;41.87;99157.47;5112328;28;20056;-57
2022/08/29 02:50:31;;;;;;;1.38;1.00;;;;;;;29.47;41.84;99154.66;5112202;28;20089;-57
2022/08/29 02:52:56;;;;;;;1.20;0.93;;;;;;;29.48;41.48;99147.00;5112215;28;20055;-57
2022/08/29 02:55:23;;;;;;;1.10;0.90;;;;;;;29.48;41.93;99147.00;5112328;28;20108;-60
2022/08/29 02:57:49;;;;;;;1.50;0.95;;;;;;;29.47;41.71;99149.03;5112045;28;20095;-60
2022/08/29 03:00:20;;;;;;;1.38;1.00;;;;;;;29.47;41.91;99149.03;5112371;28;20480;-57
2022/08/29 03:02:46;;;;;;;1.65;1.00;;;;;;;29.44;41.50;99152.72;5112391;28;20054;-60
2022/08/29 03:05:13;;;;;;;1.30;1.00;;;;;;;29.45;41.93;99157.13;5112320;28;20043;-57
2022/08/29 03:07:39;;;;;;;1.52;1.00;;;;;;;29.47;41.63;99159.50;5111978;28;20039;-60
2022/08/29 03:10:06;;;;;;;1.30;1.00;;;;;;;29.46;41.94;99158.72;5112106;28;20047;-60
2022/08/29 03:12:32;;;;;;;1.40;0.95;;;;;;;29.46;41.79;99161.53;5111926;28;20078;-60
2022/08/29 03:14:58;;;;;;;1.75;1.20;;;;;;;29.47;41.96;99157.47;5111936;28;20118;-60
2022/08/29 03:17:23;;;;;;;1.60;1.00;;;;;;;29.47;41.79;99156.69;5111681;28;20157;-60
2022/08/29 03:19:48;;;;;;;1.25;0.85;;;;;;;29.47;41.69;99153.88;5112043;28;20044;-60
2022/08/29 03:22:14;;;;;;;1.83;1.10;;;;;;;29.48;41.74;99158.25;5111998;28;20051;-57
2022/08/29 03:24:39;;;;;;;1.27;0.90;;;;;;;29.47;41.76;99160.28;5111917;28;20051;-57
2022/08/29 03:27:05;;;;;;;1.35;1.00;;;;;;;29.47;41.69;99167.97;5111842;28;20112;-57
2022/08/29 03:29:31;;;;;;;1.80;1.15;;;;;;;29.43;41.95;99159.56;5111801;28;20039;-57
2022/08/29 03:31:57;;;;;;;1.35;1.00;;;;;;;29.45;42.02;99162.78;5111781;28;20051;-60
2022/08/29 03:34:27;;;;;;;1.52;1.00;;;;;;;29.45;41.97;99165.59;5111768;28;20036;-57
2022/08/29 03:36:53;;;;;;;1.42;0.98;;;;;;;29.46;41.66;99161.53;5110703;28;20051;-57
2022/08/29 03:39:19;;;;;;;1.27;0.90;;;;;;;29.46;41.95;99175.63;5111683;28;20133;-57
2022/08/29 03:41:44;;;;;;;1.45;0.95;;;;;;;29.43;41.71;99165.22;5111538;28;20097;-57
2022/08/29 03:44:11;;;;;;;1.13;0.90;;;;;;;29.46;41.93;99169.19;5111559;28;20044;-60
2022/08/29 03:46:38;;;;;;;1.42;1.00;;;;;;;29.45;41.61;99159.16;5111490;28;20059;-57
2022/08/29 03:49:06;;;;;;;1.50;1.02;;;;;;;29.43;41.66;99159.56;5111555;28;20051;-57
2022/08/29 03:51:33;;;;;;;1.48;0.90;;;;;;;29.45;41.71;99167.63;5111459;28;20052;-57
2022/08/29 03:53:58;;;;;;;1.08;0.80;;;;;;;29.44;41.98;99166.03;5111269;28;20169;-60
2022/08/29 03:56:24;;;;;;;1.33;0.93;;;;;;;29.44;41.81;99169.63;5111295;28;20140;-60
2022/08/29 03:58:50;;;;;;;1.52;1.05;;;;;;;29.42;41.82;99160.81;5111249;28;20172;-60
2022/08/29 04:01:17;;;;;;;1.42;1.00;;;;;;;29.45;41.82;99167.63;5111252;28;20139;-57
2022/08/29 04:03:42;;;;;;;1.67;1.13;;;;;;;29.44;41.50;99166.03;5111091;28;20051;-57
2022/08/29 04:06:08;;;;;;;1.23;0.88;;;;;;;29.44;41.64;99166.81;5111210;28;20073;-57
2022/08/29 04:08:33;;;;;;;1.35;0.98;;;;;;;29.46;41.92;99174.84;5110982;28;20712;-60
2022/08/29 04:10:59;;;;;;;1.60;1.08;;;;;;;29.44;41.65;99171.66;5110997;28;20036;-57
2022/08/29 04:13:24;;;;;;;1.50;1.00;;;;;;;29.45;41.80;99174.03;5111082;28;20415;-60
2022/08/29 04:15:50;;;;;;;1.55;1.05;;;;;;;29.43;41.91;99179.31;5111125;28;20411;-57
2022/08/29 04:18:16;;;;;;;1.50;1.10;;;;;;;29.45;41.64;99179.69;5110938;28;20859;-60
2022/08/29 04:20:43;;;;;;;1.48;1.05;;;;;;;29.44;41.51;99183.72;5110940;28;20068;-57
2022/08/29 04:23:11;;;;;;;1.33;1.00;;;;;;;29.43;41.70;99184.94;5110749;28;20050;-60
2022/08/29 04:25:37;;;;;;;1.52;1.00;;;;;;;29.43;41.57;99196.22;5107240;28;20043;-60
2022/08/29 04:28:05;;;;;;;1.30;0.90;;;;;;;29.44;41.90;99189.38;5110738;28;20039;-60
2022/08/29 04:30:30;;;;;;;1.85;1.10;;;;;;;29.44;41.59;99206.28;5110710;28;20051;-60
2022/08/29 04:32:57;;;;;;;1.55;0.90;;;;;;;29.44;41.81;99208.31;5110885;28;20040;-60
2022/08/29 04:35:23;;;;;;;1.48;1.10;;;;;;;29.44;41.50;99214.72;5110880;28;20047;-60
2022/08/29 04:37:48;;;;;;;1.48;1.02;;;;;;;29.43;41.87;99207.47;5110651;28;20073;-57
2022/08/29 04:40:16;;;;;;;1.48;1.00;;;;;;;29.44;41.63;99223.19;5110738;28;20073;-57
2022/08/29 04:42:42;;;;;;;2.10;1.30;;;;;;;29.46;41.47;99220.72;5110779;28;20080;-57
2022/08/29 04:45:13;;;;;;;1.50;1.00;;;;;;;29.45;41.85;99224.75;5110801;28;20047;-60
2022/08/29 04:47:39;;;;;;;1.88;1.20;;;;;;;29.48;41.92;99228.72;5110536;28;20096;-60
2022/08/29 04:50:06;;;;;;;1.45;1.00;;;;;;;29.48;41.48;99232.31;5110448;28;20082;-58
2022/08/29 04:52:32;;;;;;;1.65;1.10;;;;;;;29.48;41.64;99235.16;5109492;28;20055;-57
2022/08/29 04:54:58;;;;;;;1.50;1.00;;;;;;;29.48;41.48;99232.31;5109370;28;20044;-60
2022/08/29 04:57:24;;;;;;;1.70;1.10;;;;;;;29.49;41.62;99233.91;5110358;28;20047;-60
2022/08/29 04:59:57;;;;;;;1.45;1.00;;;;;;;29.50;41.79;99231.88;5110395;28;20043;-57
2022/08/29 05:02:24;;;;;;;1.15;0.90;;;;;;;29.50;41.43;99235.53;5107719;28;20060;-57
2022/08/29 05:04:53;;;;;;;1.33;0.90;;;;;;;29.49;41.86;99236.72;5110131;28;20058;-60
2022/08/29 05:07:25;;;;;;;1.38;0.93;;;;;;;29.51;41.57;99239.94;5110118;28;20122;-57
2022/08/29 05:10:08;;;;;;;1.92;1.30;;;;;;;29.50;41.94;99243.97;5110121;28;20114;-57
2022/08/29 05:12:34;;;;;;;8.23;2.28;;;;;;;29.49;40.85;99239.53;5110261;28;20115;-59
2022/08/29 05:15:03;;;;;;;8.18;3.00;;;;;;;29.28;40.74;99240.84;5110241;28;20050;-61
2022/08/29 05:17:28;;;;;;;7.78;2.97;;;;;;;29.19;41.57;99245.50;5109987;28;20106;-63
2022/08/29 05:19:54;;;;;;;7.85;3.00;;;;;;;29.19;41.32;99245.50;5109890;28;20479;-57
2022/08/29 05:22:20;;;;;;;8.95;3.20;;;;;;;29.22;41.32;99253.06;5109714;28;20051;-61
2022/08/29 05:24:47;;;;;;;9.32;2.65;;;;;;;29.25;41.36;99264.25;5109893;28;20044;-61
2022/08/29 05:27:16;;;;;;;6.13;2.60;;;;;;;29.28;41.43;99268.22;5109909;28;20423;-61
2022/08/29 05:29:48;;;;;;;6.07;2.35;;;;;;;29.31;41.71;99265.34;5091384;28;20129;-57
2022/08/29 05:32:14;;;;;;;5.45;2.20;;;;;;;29.32;41.48;99274.56;5109654;28;20054;-57
2022/08/29 05:34:41;;;;;;;4.55;2.25;;;;;;;29.34;41.75;99269.28;5109694;28;20044;-57
2022/08/29 05:37:09;;;;;;;6.95;2.30;;;;;;;29.36;41.64;99278.09;5109511;28;20066;-61
2022/08/29 05:39:36;;;;;;;6.05;2.17;;;;;;;29.38;41.60;99277.69;5107550;28;20062;-57
2022/08/29 05:42:02;;;;;;;5.95;2.67;;;;;;;29.35;41.17;99273.69;5109937;28;20058;-57
2022/08/29 05:44:30;;;;;;;7.22;2.20;;;;;;;29.41;41.61;99279.59;5109813;28;20541;-61
2022/08/29 05:46:55;;;;;;;6.97;2.10;;;;;;;29.41;41.33;99283.22;5109747;28;20079;-58
2022/08/29 05:49:21;;;;;;;8.20;2.28;;;;;;;29.43;41.59;99277.94;5109552;28;20082;-61
2022/08/29 05:51:46;;;;;;;7.97;2.25;;;;;;;29.45;41.51;99283.16;5109061;28;20576;-61
2022/08/29 05:54:12;;;;;;;5.22;1.98;;;;;;;29.46;41.38;99284.72;5109432;28;20046;-61
2022/08/29 05:56:38;;;;;;;2.78;1.90;;;;;;;29.45;41.17;99292.41;5109379;28;20423;-57
2022/08/29 05:59:04;;;;;;;3.88;2.30;;;;;;;29.47;41.34;99298.38;5110202;28;20058;-61
2022/08/29 06:01:32;;;;;;;6.85;2.28;;;;;;;29.46;41.61;99293.97;5113134;28;20090;-57
2022/08/29 06:03:59;;;;;;;7.22;2.17;;;;;;;29.33;41.12;99309.97;5112973;28;20048;-61
2022/08/29 06:06:26;;;;;;;3.10;2.00;;;;;;;29.21;41.15;99310.63;5112766;28;20035;-61
2022/08/29 06:08:53;;;;;;;4.28;2.30;;;;;;;29.07;40.93;99314.53;5112803;28;20341;-57
2022/08/29 06:11:22;;;;;;;3.17;1.98;;;;;;;28.91;41.03;99309.63;5112830;28;20093;-61
2022/08/29 06:13:48;;;;;;;4.38;2.38;;;;;;;28.83;41.76;99313.78;5112972;28;20131;-61
2022/08/29 06:16:16;;;;;;;3.10;2.03;;;;;;;28.69;42.59;99309.25;5110602;28;20044;-61
2022/08/29 06:18:41;;;;;;;3.00;2.17;;;;;;;28.67;43.01;99316.53;5112761;28;20047;-57
2022/08/29 06:21:09;;;;;;;3.53;1.90;;;;;;;28.67;42.93;99317.31;5112741;28;20044;-61
2022/08/29 06:23:35;;;;;;;3.63;2.10;;;;;;;28.68;42.84;99316.09;5112437;28;20043;-57
2022/08/29 06:26:01;;;;;;;3.65;2.33;;;;;;;28.66;42.92;99315.75;5112616;28;20089;-61
2022/08/29 06:28:28;;;;;;;3.45;2.22;;;;;;;28.71;42.90;99317.25;5112616;28;20047;-61
2022/08/29 06:30:54;;;;;;;2.72;1.90;;;;;;;28.69;42.97;99319.72;5112642;28;20044;-60
2022/08/29 06:33:19;;;;;;;3.40;2.00;;;;;;;28.70;42.92;99321.28;5112610;28;20051;-57
2022/08/29 06:35:45;;;;;;;6.03;2.45;;;;;;;28.74;42.71;99313.59;5112658;28;20152;-61
2022/08/29 06:38:10;;;;;;;2.95;1.90;;;;;;;28.76;42.87;99325.19;5112471;28;20060;-61
2022/08/29 06:40:36;;;;;;;3.40;1.90;;;;;;;28.75;42.62;99327.22;5112354;28;20157;-61
2022/08/29 06:43:01;;;;;;;3.25;2.30;;;;;;;28.73;42.46;99320.44;5112601;28;20563;-57
2022/08/29 06:45:27;;;;;;;5.40;2.15;;;;;;;28.75;42.55;99315.16;5106376;28;20040;-61
2022/08/29 06:47:52;;;;;;;2.80;1.75;;;;;;;28.72;42.53;99322.47;5088074;28;20067;-61
2022/08/29 06:50:18;;;;;;;3.15;1.90;;;;;;;28.73;42.45;99314.81;5089409;28;20618;-61
2022/08/29 06:52:43;;;;;;;2.70;1.60;;;;;;;28.73;42.63;99317.63;5092872;28;20040;-57
2022/08/29 06:55:11;;;;;;;2.80;1.80;;;;;;;28.80;41.96;99317.50;5103973;28;20048;-57
2022/08/29 06:57:41;;;;;;;3.53;1.90;;;;;;;28.79;42.30;99307.44;5088829;28;20582;-61
2022/08/29 07:00:10;;;;;;;2.25;1.58;;;;;;;28.71;40.90;99305.97;5092729;28;20044;-61
2022/08/29 07:02:36;;;;;;;3.47;1.80;;;;;;;28.56;43.13;99313.13;5092169;28;20952;-56
2022/08/29 07:05:01;;;;;;;2.50;1.75;;;;;;;28.45;42.76;99311.31;5093523;28;20443;-56
2022/08/29 07:07:26;;;;;;;3.97;2.67;;;;;;;28.41;42.74;99321.81;5097385;28;20482;-60
2022/08/29 07:09:52;;;;;;;7.43;3.47;;;;;;;28.33;42.74;99314.72;5094706;28;20059;-56
2022/08/29 07:12:17;;;;;;;4.55;3.35;;;;;;;28.32;42.63;99324.41;5087960;28;20074;-60
2022/08/29 07:14:42;;;;;;;6.75;3.90;;;;;;;28.25;42.70;99321.69;5096378;28;20067;-57
2022/08/29 07:17:08;;;;;;;4.93;3.55;;;;;;;28.21;43.15;99323.75;5094599;28;20411;-57
2022/08/29 07:19:34;;;;;;;4.70;3.90;;;;;;;28.20;43.37;99314.50;5099025;28;20045;-60
2022/08/29 07:21:59;;;;;;;5.80;3.50;;;;;;;28.17;43.52;99317.41;5103553;28;20473;-56
2022/08/29 07:24:25;;;;;;;5.60;3.70;;;;;;;28.19;43.08;99326.19;5095280;28;20079;-56
2022/08/29 07:26:51;;;;;;;7.05;3.65;;;;;;;28.19;43.16;99326.19;5094760;28;20044;-56
2022/08/29 07:29:19;;;;;;;8.55;3.85;;;;;;;28.18;43.38;99319.78;5089889;28;20040;-59
2022/08/29 07:31:46;;;;;;;5.65;3.72;;;;;;;28.14;43.54;99316.22;5094288;28;20048;-57
2022/08/29 07:34:12;;;;;;;5.88;3.58;;;;;;;28.12;43.54;99321.50;5097187;28;20044;-61
2022/08/29 07:36:38;;;;;;;7.05;4.05;;;;;;;28.10;43.63;99317.53;5099626;28;20381;-61
2022/08/29 07:39:10;;;;;;;8.07;3.97;;;;;;;28.09;43.29;99311.09;5083031;28;20424;-61
2022/08/29 07:41:38;;;;;;;4.90;3.30;;;;;;;28.12;42.93;99317.88;5086624;28;20043;-57
2022/08/29 07:44:04;;;;;;;4.18;3.22;;;;;;;28.15;42.69;99308.59;5084117;28;20052;-57
2022/08/29 07:46:30;;;;;;;5.88;3.70;;;;;;;28.16;42.75;99310.19;5073617;28;20049;-61
2022/08/29 07:48:57;;;;;;;6.03;3.80;;;;;;;28.15;42.71;99317.84;5097439;28;20661;-61
2022/08/29 07:51:24;;;;;;;4.75;3.42;;;;;;;28.14;42.62;99307.78;5082681;28;20132;-61
2022/08/29 07:53:50;;;;;;;5.18;3.28;;;;;;;28.12;42.68;99304.63;5097234;28;20900;-57
2022/08/29 07:56:22;;;;;;;6.55;3.65;;;;;;;28.12;42.87;99309.44;5100087;28;20052;-61
2022/08/29 07:58:48;;;;;;;5.30;4.03;;;;;;;28.10;42.82;99309.09;5073817;28;20047;-57
2022/08/29 08:01:14;;;;;;;9.20;3.63;;;;;;;28.06;43.07;99297.88;5105273;28;20047;-58
2022/08/29 08:03:41;;;;;;;5.80;3.40;;;;;;;28.05;43.18;99303.94;5077155;28;20048;-55
2022/08/29 08:06:10;;;;;;;5.95;3.70;;;;;;;28.04;43.17;99305.16;5077496;28;20052;-56
2022/08/29 08:08:35;;;;;;;6.35;3.90;;;;;;;28.06;43.16;99297.09;5074177;28;20057;-59
2022/08/29 08:11:07;;;;;;;4.47;3.35;;;;;;;28.09;43.20;99304.69;5087037;28;20044;-57
2022/08/29 08:13:34;;;;;;;6.07;3.53;;;;;;;28.09;43.13;99313.91;5096820;28;20385;-56
2022/08/29 08:16:04;;;;;;;5.47;3.60;;;;;;;28.09;42.95;99319.53;5097742;28;20118;-56
2022/08/29 08:18:30;;;;;;;6.40;3.50;;;;;;;28.08;42.98;99314.34;5096404;28;20052;-59
2022/08/29 08:20:55;;;;;;;7.82;3.97;;;;;;;28.06;42.99;99302.72;5090700;28;20051;-59
2022/08/29 08:23:21;;;;;;;8.10;3.60;;;;;;;28.11;42.88;99299.41;5096124;28;20043;-56
2022/08/29 08:25:46;;;;;;;5.10;3.47;;;;;;;28.10;42.76;99295.03;5099437;28;20108;-56
2022/08/29 08:28:13;;;;;;;5.38;3.80;;;;;;;28.14;42.72;99301.38;5095942;28;20139;-56
2022/08/29 08:30:38;;;;;;;5.70;3.38;;;;;;;28.11;42.55;99303.03;5097957;28;20047;-59
2022/08/29 08:33:04;;;;;;;6.97;3.70;;;;;;;28.11;42.47;99297.41;5090194;28;20040;-59
2022/08/29 08:35:34;;;;;;;6.80;3.78;;;;;;;28.08;42.37;99291.84;5073788;28;20097;-58
2022/08/29 08:38:00;;;;;;;4.65;3.47;;;;;;;28.10;42.29;99295.03;5107581;28;20043;-56
2022/08/29 08:40:27;;;;;;;6.35;3.60;;;;;;;28.10;42.26;99289.41;5104341;28;20047;-59
2022/08/29 08:43:00;;;;;;;10.10;4.18;;;;;;;28.12;42.41;99284.94;5106529;28;20173;-59
2022/08/29 08:45:36;;;;;;;6.90;3.78;;;;;;;28.12;42.73;99292.56;5101481;28;20109;-59
2022/08/29 08:48:04;;;;;;;4.90;3.47;;;;;;;28.15;42.77;99291.72;5106938;28;20128;-59
2022/08/29 08:50:36;;;;;;;5.60;3.13;;;;;;;28.14;42.80;99295.75;5093053;28;20074;-58
2022/08/29 08:53:06;;;;;;;5.15;3.22;;;;;;;28.17;42.75;99289.28;5087518;28;20063;-57
2022/08/29 08:55:48;;;;;;;5.22;3.40;;;;;;;28.20;42.69;99296.84;5083385;28;20198;-59
2022/08/29 08:58:16;;;;;;;6.90;3.38;;;;;;;28.19;42.67;99287.63;5101600;28;20087;-56
2022/08/29 09:00:49;;;;;;;4.88;3.55;;;;;;;28.19;42.64;99282.00;5084107;28;20501;-57
2022/08/29 09:03:45;;;;;;;5.57;3.92;;;;;;;28.24;42.71;99278.69;5080776;28;20573;-56
2022/08/29 09:06:34;;;;;;;6.68;3.30;;;;;;;28.29;42.71;99285.03;5098205;28;20055;-60
2022/08/29 09:09:31;;;;;;;4.28;3.33;;;;;;;28.31;42.69;99289.06;5012838;28;20192;-56
2022/08/29 09:12:15;;;;;;;4.90;3.35;;;;;;;28.32;42.66;99285.00;4980700;28;20214;-57
2022/08/29 09:15:01;;;;;;;4.72;3.38;;;;;;;28.35;42.81;99280.53;5008904;28;20049;-59
2022/08/29 09:17:35;;;;;;;4.22;3.20;;;;;;;28.37;42.70;99276.09;5008012;28;20433;-57
2022/08/29 09:20:07;;;;;;;5.03;3.58;;;;;;;28.42;42.66;99277.59;5006352;28;20058;-55
2022/08/29 09:22:34;;;;;;;5.82;3.58;;;;;;;28.45;42.48;99271.91;4992605;28;20482;-56
2022/08/29 09:25:03;;;;;;;4.38;3.45;;;;;;;28.46;42.44;99267.06;5018243;28;20038;-59
2022/08/29 09:27:31;;;;;;;8.27;3.67;;;;;;;28.47;42.61;99263.03;4995760;28;20042;-56
2022/08/29 09:30:10;;;;;;;6.22;3.50;;;;;;;28.48;42.61;99261.81;5000138;28;20117;-58
2022/08/29 09:33:03;;;;;;;5.68;3.40;;;;;;;28.54;42.45;99256.47;4999211;28;20430;-57
2022/08/29 09:35:51;;;;;;;5.85;3.53;;;;;;;28.57;42.42;99256.41;5002734;28;20064;-58
2022/08/29 09:38:16;;;;;;;6.80;3.42;;;;;;;28.63;42.51;99248.25;5006689;28;20088;-57
2022/08/29 09:40:41;;;;;;;6.25;3.70;;;;;;;28.62;42.42;99252.28;5004583;28;20439;-59
2022/08/29 09:43:07;;;;;;;5.30;3.33;;;;;;;28.62;42.57;99247.47;5003256;28;20480;-58
2022/08/29 09:45:33;;;;;;;4.68;3.20;;;;;;;28.65;42.50;99245.81;5031780;28;20058;-56
2022/08/29 09:48:13;;;;;;;7.00;3.53;;;;;;;28.64;42.33;99239.38;5069547;28;21100;-57
2022/08/29 09:50:39;;;;;;;6.15;3.78;;;;;;;28.68;42.63;99242.91;5097786;28;20144;-55
2022/08/29 09:53:05;;;;;;;5.43;3.85;;;;;;;28.57;41.26;99239.50;5074198;28;20044;-56
2022/08/29 09:55:41;;;;;;;7.50;3.70;;;;;;;28.47;43.17;99238.50;5101168;28;20055;-57
2022/08/29 09:58:17;;;;;;;6.82;3.50;;;;;;;28.45;43.22;99229.72;5084488;28;20066;-60
2022/08/29 10:01:00;;;;;;;5.65;3.75;;;;;;;28.48;42.51;99226.03;5106259;28;20074;-58
2022/08/29 10:03:32;;;;;;;5.65;3.63;;;;;;;28.55;41.70;99225.09;5099179;28;20085;-58
2022/08/29 10:06:16;;;;;;;7.45;3.33;;;;;;;28.59;41.14;99222.22;5099189;28;20043;-58
2022/08/29 10:08:53;;;;;;;4.53;3.40;;;;;;;28.63;41.03;99211.66;5085378;28;20035;-58
2022/08/29 10:11:22;;;;;;;4.65;2.80;;;;;;;28.65;39.10;99209.22;5094291;28;20527;-56
2022/08/29 10:13:56;;;;;;;4.63;3.05;;;;;;;28.48;41.44;99203.50;5102314;28;20406;-56
2022/08/29 10:16:40;;;;;;;7.78;3.00;;;;;;;28.37;41.67;99197.31;5103847;28;20071;-60
2022/08/29 10:19:14;;;;;;;6.32;2.88;;;;;;;28.39;41.31;99191.25;5106085;28;20827;-60
2022/08/29 10:22:08;;;;;;;4.22;2.88;;;;;;;28.41;41.29;99186.78;5101146;28;20140;-61
2022/08/29 10:25:02;;;;;;;4.10;2.95;;;;;;;28.52;40.89;99193.00;5068707;28;20064;-60
2022/08/29 10:27:36;;;;;;;4.65;2.78;;;;;;;28.58;40.92;99189.69;5097143;28;20653;-61
2022/08/29 10:30:05;;;;;;;3.60;2.30;;;;;;;28.61;40.85;99188.78;5098937;28;20063;-61
2022/08/29 10:32:43;;;;;;;3.63;2.72;;;;;;;28.60;40.87;99173.94;5102544;28;20546;-57
2022/08/29 10:35:26;;;;;;;3.33;2.50;;;;;;;28.63;40.85;99172.25;5107397;28;20135;-57
2022/08/29 10:37:52;;;;;;;4.30;2.58;;;;;;;28.65;40.87;99172.63;5100359;28;20044;-60
2022/08/29 10:40:25;;;;;;;3.92;2.53;;;;;;;28.64;40.83;99166.19;5095993;28;20050;-60
2022/08/29 10:43:16;;;;;;;2.97;2.20;;;;;;;28.71;40.95;99168.06;5096624;28;20503;-60
2022/08/29 10:45:50;;;;;;;2.95;2.30;;;;;;;28.72;40.62;99167.66;5089021;27;20067;-56
2022/08/29 10:48:28;;;;;;;3.13;2.47;;;;;;;28.74;41.01;99172.84;5096761;28;20094;-56
2022/08/29 10:51:19;;;;;;;2.75;2.10;;;;;;;28.77;40.88;99172.75;5096445;28;20048;-56
2022/08/29 10:53:55;;;;;;;3.13;2.28;;;;;;;28.68;39.83;99166.91;5090433;28;20113;-60
2022/08/29 10:56:34;;;;;;;2.67;1.92;;;;;;;28.48;41.78;99158.50;5082282;28;20042;-60
2022/08/29 10:59:33;;;;;;;2.90;2.20;;;;;;;28.46;41.68;99160.94;5100785;28;20043;-56
2022/08/29 11:02:09;;;;;;;2.90;2.25;;;;;;;28.48;41.79;99147.22;5069227;28;20460;-60
2022/08/29 11:04:44;;;;;;;2.95;2.25;;;;;;;28.53;41.46;99148.75;5101295;28;20506;-60
2022/08/29 11:07:12;;;;;;;2.72;2.00;;;;;;;28.57;41.60;99143.03;5093031;28;20490;-56
2022/08/29 11:09:41;;;;;;;2.53;1.90;;;;;;;28.63;41.28;99144.13;5096289;28;20111;-55
2022/08/29 11:12:16;;;;;;;2.83;2.17;;;;;;;28.67;40.70;99140.00;5084207;28;20061;-56
2022/08/29 11:14:47;;;;;;;2.83;2.05;;;;;;;28.62;40.36;99134.88;5090253;28;20127;-61
2022/08/29 11:17:16;;;;;;;3.22;2.03;;;;;;;28.48;41.75;99133.16;5093528;28;20139;-60
2022/08/29 11:20:18;;;;;;;3.97;2.33;;;;;;;28.37;41.97;99129.00;5081246;28;20051;-60
2022/08/29 11:22:53;;;;;;;4.10;3.00;;;;;;;28.35;41.20;99126.59;5055838;28;20086;-58
2022/08/29 11:25:20;;;;;;;5.72;2.65;;;;;;;28.41;41.46;99127.69;5097116;28;20093;-53
2022/08/29 11:27:52;;;;;;;3.53;2.67;;;;;;;28.49;41.24;99131.94;5104449;28;20063;-56
2022/08/29 11:30:32;;;;;;;4.15;2.25;;;;;;;28.57;41.08;99131.78;5091198;28;20048;-59
2022/08/29 11:33:09;;;;;;;3.28;2.40;;;;;;;28.61;40.97;99126.88;5091170;28;20138;-59
2022/08/29 11:35:35;;;;;;;5.13;2.30;;;;;;;28.66;40.89;99113.09;5091025;28;20428;-59
2022/08/29 11:38:11;;;;;;;3.88;2.22;;;;;;;28.66;40.88;99118.72;5091533;28;20377;-56
2022/08/29 11:40:42;;;;;;;2.80;2.10;;;;;;;28.68;40.62;99110.63;5091363;28;20040;-56
2022/08/29 11:43:13;;;;;;;2.85;2.25;;;;;;;28.69;40.79;99105.78;5091215;28;20055;-56
2022/08/29 11:45:41;;;;;;;2.65;1.92;;;;;;;28.69;40.66;99102.97;5091065;28;20466;-59